Terminal Aerodrome Forecast
Issued by NWS

Home | Current Version | Previous Version | Text Only | Print | Product List | Glossary On
Versions: 1 2 3 4 5 6 7 8 9 10 11 12 13 14 15 16 17 18 19 20 21 22 23 24 25
000
FTUS46 KSGX 290500 AAA
TAFSAN
TAF AMD
KSAN 290551Z 2906/3012 VRB03KT P6SM SCT020 SCT200
      TEMPO 2910/2914 BKN020
     FM292100 27006KT P6SM SCT025
     FM300200 22004KT P6SM BKN028
     FM300600 15005KT P6SM BKN025=

USA.gov is the U.S. government's official web portal to all federal, state and local government web resources and services.